sensor_id;sensor_type;location;lat;lon;timestamp;pressure;altitude;pressure_sealevel;temperature;humidity
53689;BME280;39583;54.682;30.662;2023-02-15T09:20:37;100679.25;;;2.43;72.09
53689;BME280;39583;54.682;30.662;2023-02-15T09:23:04;100691.16;;;2.58;72.32
53689;BME280;39583;54.682;30.662;2023-02-15T09:25:29;100689.63;;;2.55;72.41
53689;BME280;39583;54.682;30.662;2023-02-15T09:27:56;100696.63;;;2.66;72.40
53689;BME280;39583;54.682;30.662;2023-02-15T09:30:22;100696.06;;;2.72;72.41
53689;BME280;39583;54.682;30.662;2023-02-15T09:32:48;100685.56;;;2.71;71.99
53689;BME280;39583;54.682;30.662;2023-02-15T09:35:14;100692.72;;;2.70;71.75
53689;BME280;39583;54.682;30.662;2023-02-15T09:37:40;100689.22;;;2.79;71.92
53689;BME280;39583;54.682;30.662;2023-02-15T09:40:06;100696.78;;;2.84;71.55
53689;BME280;39583;54.682;30.662;2023-02-15T09:42:36;100698.59;;;2.83;71.24
53689;BME280;39583;54.682;30.662;2023-02-15T10:06:35;100683.47;;;2.93;69.08
53689;BME280;39583;54.682;30.662;2023-02-15T10:12:45;100677.47;;;2.82;67.49
53689;BME280;39583;54.682;30.662;2023-02-15T10:15:35;100673.53;;;2.66;66.58
53689;BME280;39583;54.682;30.662;2023-02-15T10:18:14;100685.59;;;2.61;67.37
53689;BME280;39583;54.682;30.662;2023-02-15T10:26:21;100662.03;;;2.85;67.86
53689;BME280;39583;54.682;30.662;2023-02-15T10:28:53;100655.06;;;2.84;68.05
53689;BME280;39583;54.682;30.662;2023-02-15T10:31:28;100653.81;;;2.88;68.07
53689;BME280;39583;54.682;30.662;2023-02-15T10:39:16;100653.56;;;3.38;68.31
53689;BME280;39583;54.682;30.662;2023-02-15T10:47:48;100646.28;;;3.77;68.31
53689;BME280;39583;54.682;30.662;2023-02-15T10:50:45;100641.00;;;3.68;67.64
53689;BME280;39583;54.682;30.662;2023-02-15T10:56:06;100639.38;;;3.57;67.05
53689;BME280;39583;54.682;30.662;2023-02-15T11:04:04;100644.94;;;3.64;65.82
53689;BME280;39583;54.682;30.662;2023-02-15T11:06:36;100648.31;;;3.66;66.05
53689;BME280;39583;54.682;30.662;2023-02-15T11:09:10;100633.34;;;3.55;65.84
53689;BME280;39583;54.682;30.662;2023-02-15T11:11:39;100631.94;;;3.51;66.21
53689;BME280;39583;54.682;30.662;2023-02-15T11:14:36;100643.69;;;3.58;65.72
53689;BME280;39583;54.682;30.662;2023-02-15T11:17:10;100648.19;;;3.58;65.96
53689;BME280;39583;54.682;30.662;2023-02-15T11:19:43;100643.84;;;3.57;65.55
53689;BME280;39583;54.682;30.662;2023-02-15T11:22:15;100645.97;;;3.53;65.55
53689;BME280;39583;54.682;30.662;2023-02-15T11:24:45;100634.81;;;3.40;65.25
53689;BME280;39583;54.682;30.662;2023-02-15T11:29:52;100631.22;;;3.59;65.68
53689;BME280;39583;54.682;30.662;2023-02-15T11:32:36;100635.53;;;3.69;65.63
53689;BME280;39583;54.682;30.662;2023-02-15T11:35:16;100638.03;;;3.71;65.50
53689;BME280;39583;54.682;30.662;2023-02-15T11:40:41;100638.81;;;3.53;65.48
53689;BME280;39583;54.682;30.662;2023-02-15T11:45:55;100639.69;;;3.35;65.28
53689;BME280;39583;54.682;30.662;2023-02-15T11:48:21;100639.47;;;3.18;64.93
53689;BME280;39583;54.682;30.662;2023-02-15T11:50:47;100633.59;;;3.15;65.39
53689;BME280;39583;54.682;30.662;2023-02-15T11:53:18;100632.03;;;3.12;64.70
53689;BME280;39583;54.682;30.662;2023-02-15T11:55:47;100629.97;;;3.06;65.22
53689;BME280;39583;54.682;30.662;2023-02-15T12:06:05;100627.00;;;3.19;64.93
53689;BME280;39583;54.682;30.662;2023-02-15T12:08:43;100616.34;;;3.19;64.92
53689;BME280;39583;54.682;30.662;2023-02-15T12:11:18;100613.31;;;3.04;64.49
53689;BME280;39583;54.682;30.662;2023-02-15T12:13:58;100618.34;;;3.07;64.68
53689;BME280;39583;54.682;30.662;2023-02-15T12:16:25;100611.63;;;3.13;65.11
53689;BME280;39583;54.682;30.662;2023-02-15T12:18:55;100615.06;;;3.23;64.84
53689;BME280;39583;54.682;30.662;2023-02-15T12:21:32;100618.00;;;3.30;64.99
53689;BME280;39583;54.682;30.662;2023-02-15T12:24:38;100609.88;;;3.31;64.61
53689;BME280;39583;54.682;30.662;2023-02-15T12:29:42;100604.22;;;3.44;64.69
53689;BME280;39583;54.682;30.662;2023-02-15T12:32:18;100604.63;;;3.49;64.64
53689;BME280;39583;54.682;30.662;2023-02-15T12:34:45;100604.78;;;3.47;64.73
53689;BME280;39583;54.682;30.662;2023-02-15T12:37:24;100602.53;;;3.52;64.46
53689;BME280;39583;54.682;30.662;2023-02-15T12:39:54;100593.41;;;3.55;64.51
53689;BME280;39583;54.682;30.662;2023-02-15T12:42:20;100603.91;;;3.57;64.52
53689;BME280;39583;54.682;30.662;2023-02-15T12:44:59;100599.97;;;3.51;64.39
53689;BME280;39583;54.682;30.662;2023-02-15T12:47:27;100594.28;;;3.46;64.05
53689;BME280;39583;54.682;30.662;2023-02-15T12:50:24;100602.28;;;3.36;64.10
53689;BME280;39583;54.682;30.662;2023-02-15T12:55:54;100603.28;;;3.35;64.30
53689;BME280;39583;54.682;30.662;2023-02-15T12:58:26;100595.44;;;3.34;64.73
53689;BME280;39583;54.682;30.662;2023-02-15T13:01:14;100600.91;;;3.32;64.22
53689;BME280;39583;54.682;30.662;2023-02-15T13:04:01;100596.75;;;3.20;64.09
53689;BME280;39583;54.682;30.662;2023-02-15T13:06:32;100598.88;;;3.07;63.92
53689;BME280;39583;54.682;30.662;2023-02-15T13:11:45;100601.56;;;2.97;64.05
53689;BME280;39583;54.682;30.662;2023-02-15T13:14:21;100600.72;;;2.96;63.85
53689;BME280;39583;54.682;30.662;2023-02-15T13:16:50;100603.22;;;2.98;64.02
53689;BME280;39583;54.682;30.662;2023-02-15T13:21:57;100601.84;;;2.94;63.95
53689;BME280;39583;54.682;30.662;2023-02-15T13:24:26;100603.53;;;2.85;63.58
53689;BME280;39583;54.682;30.662;2023-02-15T13:26:57;100602.72;;;2.75;63.59
53689;BME280;39583;54.682;30.662;2023-02-15T13:29:30;100604.53;;;2.65;63.25
53689;BME280;39583;54.682;30.662;2023-02-15T13:31:59;100605.94;;;2.59;63.34
53689;BME280;39583;54.682;30.662;2023-02-15T13:34:32;100604.41;;;2.57;63.35
53689;BME280;39583;54.682;30.662;2023-02-15T13:40:12;100606.22;;;2.56;63.33
53689;BME280;39583;54.682;30.662;2023-02-15T13:42:44;100599.78;;;2.59;63.58
53689;BME280;39583;54.682;30.662;2023-02-15T13:48:13;100613.50;;;2.54;63.58
53689;BME280;39583;54.682;30.662;2023-02-15T13:59:05;100619.63;;;2.16;63.34
53689;BME280;39583;54.682;30.662;2023-02-15T14:01:50;100615.84;;;2.09;63.60
53689;BME280;39583;54.682;30.662;2023-02-15T14:13:30;100606.72;;;1.92;63.92
53689;BME280;39583;54.682;30.662;2023-02-15T14:16:31;100610.19;;;1.93;63.97
53689;BME280;39583;54.682;30.662;2023-02-15T14:24:40;100617.06;;;1.86;64.25
53689;BME280;39583;54.682;30.662;2023-02-15T14:27:12;100612.13;;;1.81;64.50
53689;BME280;39583;54.682;30.662;2023-02-15T14:29:57;100621.06;;;1.80;64.46
53689;BME280;39583;54.682;30.662;2023-02-15T14:32:42;100615.19;;;1.76;64.46
53689;BME280;39583;54.682;30.662;2023-02-15T14:35:19;100621.22;;;1.78;64.87
53689;BME280;39583;54.682;30.662;2023-02-15T14:38:21;100620.22;;;1.80;65.00
53689;BME280;39583;54.682;30.662;2023-02-15T14:49:23;100602.63;;;1.78;65.42
53689;BME280;39583;54.682;30.662;2023-02-15T15:05:10;100618.16;;;1.83;66.01
53689;BME280;39583;54.682;30.662;2023-02-15T15:07:52;100621.78;;;1.82;65.79
53689;BME280;39583;54.682;30.662;2023-02-15T15:18:10;100633.38;;;1.81;66.39
53689;BME280;39583;54.682;30.662;2023-02-15T15:20:57;100638.13;;;1.77;66.11
53689;BME280;39583;54.682;30.662;2023-02-15T15:23:53;100633.78;;;1.76;66.58
53689;BME280;39583;54.682;30.662;2023-02-15T15:26:23;100637.69;;;1.72;66.63
53689;BME280;39583;54.682;30.662;2023-02-15T15:37:16;100642.41;;;1.69;66.57
53689;BME280;39583;54.682;30.662;2023-02-15T15:42:48;100641.00;;;1.65;66.83
53689;BME280;39583;54.682;30.662;2023-02-15T15:50:59;100645.88;;;1.60;66.65
53689;BME280;39583;54.682;30.662;2023-02-15T15:53:29;100649.66;;;1.57;67.00
53689;BME280;39583;54.682;30.662;2023-02-15T15:56:02;100635.22;;;1.50;67.03
53689;BME280;39583;54.682;30.662;2023-02-15T15:58:30;100640.13;;;1.55;67.12
53689;BME280;39583;54.682;30.662;2023-02-15T16:01:10;100647.09;;;1.56;67.07
53689;BME280;39583;54.682;30.662;2023-02-15T16:03:52;100642.91;;;1.53;67.17
53689;BME280;39583;54.682;30.662;2023-02-15T16:06:32;100642.63;;;1.46;66.86
53689;BME280;39583;54.682;30.662;2023-02-15T16:11:40;100639.47;;;1.32;67.44
53689;BME280;39583;54.682;30.662;2023-02-15T16:14:15;100633.84;;;1.25;67.32
53689;BME280;39583;54.682;30.662;2023-02-15T16:16:47;100644.84;;;1.21;67.34
53689;BME280;39583;54.682;30.662;2023-02-15T16:19:26;100640.66;;;1.18;67.44
53689;BME280;39583;54.682;30.662;2023-02-15T16:21:53;100640.75;;;1.16;67.82
53689;BME280;39583;54.682;30.662;2023-02-15T16:24:31;100637.41;;;1.14;67.56
53689;BME280;39583;54.682;30.662;2023-02-15T16:29:49;100636.41;;;1.15;67.77
53689;BME280;39583;54.682;30.662;2023-02-15T16:32:20;100632.22;;;1.13;67.88
53689;BME280;39583;54.682;30.662;2023-02-15T16:34:59;100625.66;;;1.07;67.86
53689;BME280;39583;54.682;30.662;2023-02-15T16:37:31;100628.28;;;1.07;68.33
53689;BME280;39583;54.682;30.662;2023-02-15T16:39:58;100623.97;;;1.06;68.34
53689;BME280;39583;54.682;30.662;2023-02-15T16:42:25;100620.13;;;0.99;68.32
53689;BME280;39583;54.682;30.662;2023-02-15T16:44:55;100625.72;;;0.96;68.39
53689;BME280;39583;54.682;30.662;2023-02-15T16:47:27;100625.97;;;0.93;68.45
53689;BME280;39583;54.682;30.662;2023-02-15T16:49:57;100621.25;;;0.97;68.51
53689;BME280;39583;54.682;30.662;2023-02-15T16:52:26;100621.94;;;0.99;68.82
53689;BME280;39583;54.682;30.662;2023-02-15T16:54:59;100625.44;;;0.99;69.15
53689;BME280;39583;54.682;30.662;2023-02-15T16:57:29;100618.19;;;1.01;69.07
53689;BME280;39583;54.682;30.662;2023-02-15T17:00:20;100635.22;;;0.99;68.88
53689;BME280;39583;54.682;30.662;2023-02-15T17:05:45;100628.63;;;0.93;69.14
53689;BME280;39583;54.682;30.662;2023-02-15T17:08:13;100621.88;;;0.89;69.02
53689;BME280;39583;54.682;30.662;2023-02-15T17:10:42;100630.94;;;0.86;69.29
53689;BME280;39583;54.682;30.662;2023-02-15T17:13:16;100622.53;;;0.81;69.24
53689;BME280;39583;54.682;30.662;2023-02-15T17:18:44;100623.16;;;0.74;69.55
53689;BME280;39583;54.682;30.662;2023-02-15T17:21:20;100621.22;;;0.76;69.66
53689;BME280;39583;54.682;30.662;2023-02-15T17:23:51;100623.75;;;0.77;69.63
53689;BME280;39583;54.682;30.662;2023-02-15T17:26:24;100616.41;;;0.81;69.68
53689;BME280;39583;54.682;30.662;2023-02-15T17:28:55;100626.16;;;0.80;69.81
53689;BME280;39583;54.682;30.662;2023-02-15T17:31:26;100615.69;;;0.79;69.71
53689;BME280;39583;54.682;30.662;2023-02-15T17:33:55;100619.91;;;0.81;69.96
53689;BME280;39583;54.682;30.662;2023-02-15T17:36:26;100630.94;;;0.86;69.89
53689;BME280;39583;54.682;30.662;2023-02-15T17:41:28;100628.84;;;0.90;69.61
53689;BME280;39583;54.682;30.662;2023-02-15T17:43:55;100629.47;;;0.94;69.58
53689;BME280;39583;54.682;30.662;2023-02-15T17:46:21;100635.59;;;0.94;69.69
53689;BME280;39583;54.682;30.662;2023-02-15T17:48:52;100629.47;;;0.94;69.81
53689;BME280;39583;54.682;30.662;2023-02-15T17:51:21;100633.41;;;0.99;69.81
53689;BME280;39583;54.682;30.662;2023-02-15T17:53:47;100637.72;;;1.00;69.62
53689;BME280;39583;54.682;30.662;2023-02-15T17:56:33;100635.22;;;0.99;69.55
53689;BME280;39583;54.682;30.662;2023-02-15T17:58:59;100634.38;;;0.98;69.57
53689;BME280;39583;54.682;30.662;2023-02-15T18:01:26;100629.91;;;0.99;70.03
53689;BME280;39583;54.682;30.662;2023-02-15T18:04:12;100629.34;;;0.95;69.97
53689;BME280;39583;54.682;30.662;2023-02-15T18:06:57;100628.03;;;0.89;70.19
53689;BME280;39583;54.682;30.662;2023-02-15T18:09:43;100629.69;;;0.91;70.33
53689;BME280;39583;54.682;30.662;2023-02-15T18:12:29;100625.00;;;0.94;70.05
53689;BME280;39583;54.682;30.662;2023-02-15T18:14:56;100619.56;;;0.96;70.40
53689;BME280;39583;54.682;30.662;2023-02-15T18:17:33;100619.00;;;0.92;70.59
53689;BME280;39583;54.682;30.662;2023-02-15T18:20:02;100617.28;;;0.91;70.26
53689;BME280;39583;54.682;30.662;2023-02-15T18:22:32;100606.94;;;0.88;70.62
53689;BME280;39583;54.682;30.662;2023-02-15T18:24:58;100613.69;;;0.92;70.31
53689;BME280;39583;54.682;30.662;2023-02-15T18:27:24;100608.88;;;0.86;70.70
53689;BME280;39583;54.682;30.662;2023-02-15T18:29:51;100618.53;;;0.87;70.43
53689;BME280;39583;54.682;30.662;2023-02-15T18:32:29;100619.06;;;0.81;70.94
53689;BME280;39583;54.682;30.662;2023-02-15T18:34:58;100615.94;;;0.76;70.41
53689;BME280;39583;54.682;30.662;2023-02-15T18:37:27;100612.97;;;0.69;70.68
53689;BME280;39583;54.682;30.662;2023-02-15T18:39:54;100608.25;;;0.73;70.70
53689;BME280;39583;54.682;30.662;2023-02-15T18:42:28;100605.59;;;0.73;70.97
53689;BME280;39583;54.682;30.662;2023-02-15T18:47:44;100608.81;;;0.76;70.73
